KAVP

Wilkes-Barre/Scranton International Airport

Wilkes-Barre/Scranton, Pennsylvania, USA

KAVP 110854Z 23008KT 10SM FEW040 OVC060 M01/M06 A2993 RMK AO2 SLP141 T10111061 55000

Observed Flight Rules
Dec-11 @ 08:54 UTC (40 minutes ago) Visual Flight Rules
Wind Visibility Clouds
230° at 8 knots 10 miles
  • Few at 4,000' AGL
  • Overcast at 6,000' AGL
Temperatures Readings
Current -1°C / 30°F
Dewpoint -6°C / 21°F
Humidity 69%
Altimeter 29.93" Hg
Pressure 1014.1 hPa
Elevation 291
Observed Flight Rules
Dec-11 @ 08:54 UTC
(40 minutes ago)
VFR
Wind Visibility
230° at 8 knots 10 miles
Clouds
  • Few at 4,000' AGL
  • Overcast at 6,000' AGL
Temperature Dewpoint
-1°C / 30°F -6°C / 21°F
Humidity Altimeter Pressure
69% 29.93" Hg 1014.1 hPa